sensor_id;sensor_type;location;lat;lon;timestamp;P1;durP1;ratioP1;P2;durP2;ratioP2
81523;SDS011;70954;49.500;10.416;2024-02-04T00:00:51;0.60;;;0.50;;
81523;SDS011;70954;49.500;10.416;2024-02-04T00:03:17;0.95;;;0.88;;
81523;SDS011;70954;49.500;10.416;2024-02-04T00:05:42;0.95;;;0.90;;
81523;SDS011;70954;49.500;10.416;2024-02-04T00:08:07;0.77;;;0.77;;
81523;SDS011;70954;49.500;10.416;2024-02-04T00:10:33;0.70;;;0.68;;
81523;SDS011;70954;49.500;10.416;2024-02-04T00:12:58;0.73;;;0.70;;
81523;SDS011;70954;49.500;10.416;2024-02-04T00:15:24;0.82;;;0.75;;
81523;SDS011;70954;49.500;10.416;2024-02-04T00:17:49;1.20;;;1.00;;
81523;SDS011;70954;49.500;10.416;2024-02-04T00:20:14;1.33;;;1.10;;
81523;SDS011;70954;49.500;10.416;2024-02-04T00:22:40;1.48;;;0.88;;
81523;SDS011;70954;49.500;10.416;2024-02-04T00:25:05;0.70;;;0.68;;
81523;SDS011;70954;49.500;10.416;2024-02-04T00:27:31;1.20;;;1.00;;
81523;SDS011;70954;49.500;10.416;2024-02-04T00:29:57;0.80;;;0.70;;
81523;SDS011;70954;49.500;10.416;2024-02-04T00:32:23;0.80;;;0.70;;
81523;SDS011;70954;49.500;10.416;2024-02-04T00:34:48;0.77;;;0.77;;
81523;SDS011;70954;49.500;10.416;2024-02-04T00:37:14;0.95;;;0.90;;
81523;SDS011;70954;49.500;10.416;2024-02-04T00:39:39;1.13;;;1.00;;
81523;SDS011;70954;49.500;10.416;2024-02-04T00:42:05;1.02;;;0.82;;
81523;SDS011;70954;49.500;10.416;2024-02-04T00:44:30;0.93;;;0.82;;
81523;SDS011;70954;49.500;10.416;2024-02-04T00:46:56;2.15;;;1.00;;
81523;SDS011;70954;49.500;10.416;2024-02-04T00:49:21;1.17;;;0.88;;
81523;SDS011;70954;49.500;10.416;2024-02-04T00:51:46;0.93;;;0.70;;
81523;SDS011;70954;49.500;10.416;2024-02-04T00:54:12;0.70;;;0.63;;
81523;SDS011;70954;49.500;10.416;2024-02-04T00:56:37;0.98;;;0.80;;
81523;SDS011;70954;49.500;10.416;2024-02-04T00:59:03;1.00;;;0.55;;
81523;SDS011;70954;49.500;10.416;2024-02-04T01:01:28;1.67;;;0.60;;
81523;SDS011;70954;49.500;10.416;2024-02-04T01:03:54;1.00;;;0.90;;
81523;SDS011;70954;49.500;10.416;2024-02-04T01:06:19;0.90;;;0.63;;
81523;SDS011;70954;49.500;10.416;2024-02-04T01:08:44;1.23;;;0.60;;
81523;SDS011;70954;49.500;10.416;2024-02-04T01:11:10;0.52;;;0.52;;
81523;SDS011;70954;49.500;10.416;2024-02-04T01:13:35;0.98;;;0.88;;
81523;SDS011;70954;49.500;10.416;2024-02-04T01:16:01;2.22;;;0.82;;
81523;SDS011;70954;49.500;10.416;2024-02-04T01:18:26;1.00;;;0.70;;
81523;SDS011;70954;49.500;10.416;2024-02-04T01:20:52;0.80;;;0.77;;
81523;SDS011;70954;49.500;10.416;2024-02-04T01:23:17;0.70;;;0.70;;
81523;SDS011;70954;49.500;10.416;2024-02-04T01:25:43;0.68;;;0.63;;
81523;SDS011;70954;49.500;10.416;2024-02-04T01:28:08;0.90;;;0.80;;
81523;SDS011;70954;49.500;10.416;2024-02-04T01:30:34;0.98;;;0.90;;
81523;SDS011;70954;49.500;10.416;2024-02-04T01:32:59;1.05;;;0.82;;
81523;SDS011;70954;49.500;10.416;2024-02-04T01:35:25;1.08;;;0.60;;
81523;SDS011;70954;49.500;10.416;2024-02-04T01:37:50;0.68;;;0.60;;
81523;SDS011;70954;49.500;10.416;2024-02-04T01:40:16;1.55;;;1.00;;
81523;SDS011;70954;49.500;10.416;2024-02-04T01:42:41;1.40;;;1.00;;
81523;SDS011;70954;49.500;10.416;2024-02-04T01:45:07;1.17;;;0.80;;
81523;SDS011;70954;49.500;10.416;2024-02-04T01:47:32;0.93;;;0.80;;
81523;SDS011;70954;49.500;10.416;2024-02-04T01:49:58;0.65;;;0.55;;
81523;SDS011;70954;49.500;10.416;2024-02-04T01:52:24;0.60;;;0.60;;
81523;SDS011;70954;49.500;10.416;2024-02-04T01:54:50;0.80;;;0.70;;
81523;SDS011;70954;49.500;10.416;2024-02-04T01:57:17;0.80;;;0.63;;
81523;SDS011;70954;49.500;10.416;2024-02-04T01:59:43;1.00;;;0.80;;
81523;SDS011;70954;49.500;10.416;2024-02-04T02:02:10;1.02;;;0.70;;
81523;SDS011;70954;49.500;10.416;2024-02-04T02:04:35;0.93;;;0.80;;
81523;SDS011;70954;49.500;10.416;2024-02-04T02:07:01;0.80;;;0.70;;
81523;SDS011;70954;49.500;10.416;2024-02-04T02:09:27;1.17;;;0.95;;
81523;SDS011;70954;49.500;10.416;2024-02-04T02:12:12;1.27;;;1.00;;
81523;SDS011;70954;49.500;10.416;2024-02-04T02:14:42;2.03;;;1.50;;
81523;SDS011;70954;49.500;10.416;2024-02-04T02:17:12;1.85;;;1.33;;
81523;SDS011;70954;49.500;10.416;2024-02-04T02:19:44;1.77;;;1.33;;
81523;SDS011;70954;49.500;10.416;2024-02-04T02:25:02;1.20;;;0.90;;
81523;SDS011;70954;49.500;10.416;2024-02-04T02:27:28;2.33;;;1.30;;
81523;SDS011;70954;49.500;10.416;2024-02-04T02:29:54;1.15;;;1.05;;
81523;SDS011;70954;49.500;10.416;2024-02-04T02:32:19;1.75;;;1.23;;
81523;SDS011;70954;49.500;10.416;2024-02-04T02:34:45;2.25;;;1.60;;
81523;SDS011;70954;49.500;10.416;2024-02-04T02:37:22;1.58;;;1.00;;
81523;SDS011;70954;49.500;10.416;2024-02-04T02:39:58;2.13;;;1.30;;
81523;SDS011;70954;49.500;10.416;2024-02-04T02:42:24;2.00;;;1.48;;
81523;SDS011;70954;49.500;10.416;2024-02-04T02:44:50;2.25;;;1.30;;
81523;SDS011;70954;49.500;10.416;2024-02-04T02:47:18;1.95;;;1.30;;
81523;SDS011;70954;49.500;10.416;2024-02-04T02:49:45;1.75;;;1.30;;
81523;SDS011;70954;49.500;10.416;2024-02-04T02:52:11;1.70;;;1.50;;
81523;SDS011;70954;49.500;10.416;2024-02-04T02:54:36;3.10;;;1.77;;
81523;SDS011;70954;49.500;10.416;2024-02-04T02:57:02;1.23;;;1.02;;
81523;SDS011;70954;49.500;10.416;2024-02-04T02:59:27;2.38;;;1.38;;
81523;SDS011;70954;49.500;10.416;2024-02-04T03:01:53;2.30;;;1.40;;
81523;SDS011;70954;49.500;10.416;2024-02-04T03:04:18;2.28;;;1.50;;
81523;SDS011;70954;49.500;10.416;2024-02-04T03:06:43;2.40;;;1.80;;
81523;SDS011;70954;49.500;10.416;2024-02-04T03:09:09;2.15;;;1.60;;
81523;SDS011;70954;49.500;10.416;2024-02-04T03:11:34;1.83;;;1.25;;
81523;SDS011;70954;49.500;10.416;2024-02-04T03:14:00;2.17;;;1.38;;
81523;SDS011;70954;49.500;10.416;2024-02-04T03:16:25;2.03;;;1.70;;
81523;SDS011;70954;49.500;10.416;2024-02-04T03:18:51;2.30;;;1.48;;
81523;SDS011;70954;49.500;10.416;2024-02-04T03:21:17;1.38;;;1.10;;
81523;SDS011;70954;49.500;10.416;2024-02-04T03:23:43;2.20;;;1.60;;
81523;SDS011;70954;49.500;10.416;2024-02-04T03:26:09;1.60;;;1.15;;
81523;SDS011;70954;49.500;10.416;2024-02-04T03:28:36;1.30;;;1.10;;
81523;SDS011;70954;49.500;10.416;2024-02-04T03:31:01;1.42;;;1.08;;
81523;SDS011;70954;49.500;10.416;2024-02-04T03:33:27;1.63;;;1.17;;
81523;SDS011;70954;49.500;10.416;2024-02-04T03:35:52;2.00;;;1.35;;
81523;SDS011;70954;49.500;10.416;2024-02-04T03:38:18;1.50;;;1.27;;
81523;SDS011;70954;49.500;10.416;2024-02-04T03:40:44;1.90;;;1.40;;
81523;SDS011;70954;49.500;10.416;2024-02-04T03:43:09;1.70;;;1.25;;
81523;SDS011;70954;49.500;10.416;2024-02-04T03:45:35;2.08;;;1.50;;
81523;SDS011;70954;49.500;10.416;2024-02-04T03:48:01;1.42;;;1.02;;
81523;SDS011;70954;49.500;10.416;2024-02-04T03:50:27;1.50;;;1.15;;
81523;SDS011;70954;49.500;10.416;2024-02-04T03:52:52;1.38;;;1.13;;
81523;SDS011;70954;49.500;10.416;2024-02-04T03:55:17;1.48;;;0.90;;
81523;SDS011;70954;49.500;10.416;2024-02-04T03:57:43;1.75;;;1.40;;
81523;SDS011;70954;49.500;10.416;2024-02-04T04:00:09;1.80;;;1.10;;
81523;SDS011;70954;49.500;10.416;2024-02-04T04:02:34;1.35;;;1.17;;
81523;SDS011;70954;49.500;10.416;2024-02-04T04:05:00;1.40;;;0.98;;
81523;SDS011;70954;49.500;10.416;2024-02-04T04:07:25;1.20;;;0.90;;
81523;SDS011;70954;49.500;10.416;2024-02-04T04:09:51;1.08;;;0.98;;
81523;SDS011;70954;49.500;10.416;2024-02-04T04:12:16;1.48;;;1.10;;
81523;SDS011;70954;49.500;10.416;2024-02-04T04:14:42;1.60;;;1.30;;
81523;SDS011;70954;49.500;10.416;2024-02-04T04:17:07;1.75;;;0.90;;
81523;SDS011;70954;49.500;10.416;2024-02-04T04:19:33;0.90;;;0.80;;
81523;SDS011;70954;49.500;10.416;2024-02-04T04:21:58;1.00;;;0.90;;
81523;SDS011;70954;49.500;10.416;2024-02-04T04:24:23;1.35;;;1.00;;
81523;SDS011;70954;49.500;10.416;2024-02-04T04:26:49;1.95;;;0.93;;
81523;SDS011;70954;49.500;10.416;2024-02-04T04:29:14;1.20;;;0.80;;
81523;SDS011;70954;49.500;10.416;2024-02-04T04:31:40;1.05;;;0.95;;
81523;SDS011;70954;49.500;10.416;2024-02-04T04:34:05;3.10;;;0.95;;
81523;SDS011;70954;49.500;10.416;2024-02-04T04:36:31;1.00;;;0.70;;
81523;SDS011;70954;49.500;10.416;2024-02-04T04:38:56;0.60;;;0.60;;
81523;SDS011;70954;49.500;10.416;2024-02-04T04:41:22;0.85;;;0.60;;
81523;SDS011;70954;49.500;10.416;2024-02-04T04:43:47;0.90;;;0.70;;
81523;SDS011;70954;49.500;10.416;2024-02-04T04:46:12;0.85;;;0.70;;
81523;SDS011;70954;49.500;10.416;2024-02-04T04:48:38;0.55;;;0.55;;
81523;SDS011;70954;49.500;10.416;2024-02-04T04:51:03;1.05;;;0.70;;
81523;SDS011;70954;49.500;10.416;2024-02-04T04:53:29;0.70;;;0.70;;
81523;SDS011;70954;49.500;10.416;2024-02-04T04:55:54;0.40;;;0.30;;
81523;SDS011;70954;49.500;10.416;2024-02-04T04:58:20;0.40;;;0.40;;
81523;SDS011;70954;49.500;10.416;2024-02-04T05:00:45;0.43;;;0.43;;
81523;SDS011;70954;49.500;10.416;2024-02-04T05:03:11;0.50;;;0.50;;
81523;SDS011;70954;49.500;10.416;2024-02-04T05:05:36;0.80;;;0.60;;
81523;SDS011;70954;49.500;10.416;2024-02-04T05:08:02;0.57;;;0.40;;
81523;SDS011;70954;49.500;10.416;2024-02-04T05:10:27;0.47;;;0.45;;
81523;SDS011;70954;49.500;10.416;2024-02-04T05:12:53;0.40;;;0.40;;
81523;SDS011;70954;49.500;10.416;2024-02-04T05:15:18;0.50;;;0.50;;
81523;SDS011;70954;49.500;10.416;2024-02-04T05:17:43;0.30;;;0.30;;
81523;SDS011;70954;49.500;10.416;2024-02-04T05:20:09;0.50;;;0.50;;
81523;SDS011;70954;49.500;10.416;2024-02-04T05:22:35;0.70;;;0.60;;
81523;SDS011;70954;49.500;10.416;2024-02-04T05:25:00;0.50;;;0.50;;
81523;SDS011;70954;49.500;10.416;2024-02-04T05:27:26;0.60;;;0.60;;
81523;SDS011;70954;49.500;10.416;2024-02-04T05:29:51;0.60;;;0.60;;
81523;SDS011;70954;49.500;10.416;2024-02-04T05:32:17;0.80;;;0.70;;
81523;SDS011;70954;49.500;10.416;2024-02-04T05:34:42;0.77;;;0.60;;
81523;SDS011;70954;49.500;10.416;2024-02-04T05:37:07;0.40;;;0.40;;
81523;SDS011;70954;49.500;10.416;2024-02-04T05:39:33;0.60;;;0.60;;
81523;SDS011;70954;49.500;10.416;2024-02-04T05:41:58;0.68;;;0.60;;
81523;SDS011;70954;49.500;10.416;2024-02-04T05:44:24;0.95;;;0.60;;
81523;SDS011;70954;49.500;10.416;2024-02-04T05:46:49;0.90;;;0.80;;
81523;SDS011;70954;49.500;10.416;2024-02-04T05:49:15;0.80;;;0.77;;
81523;SDS011;70954;49.500;10.416;2024-02-04T05:51:40;0.60;;;0.60;;
81523;SDS011;70954;49.500;10.416;2024-02-04T05:54:06;0.63;;;0.63;;
81523;SDS011;70954;49.500;10.416;2024-02-04T05:56:32;1.00;;;0.80;;
81523;SDS011;70954;49.500;10.416;2024-02-04T05:58:58;1.00;;;0.90;;
81523;SDS011;70954;49.500;10.416;2024-02-04T06:01:24;0.60;;;0.60;;
81523;SDS011;70954;49.500;10.416;2024-02-04T06:03:49;0.80;;;0.60;;
81523;SDS011;70954;49.500;10.416;2024-02-04T06:06:15;0.90;;;0.60;;
81523;SDS011;70954;49.500;10.416;2024-02-04T06:08:41;0.95;;;0.68;;
81523;SDS011;70954;49.500;10.416;2024-02-04T06:11:11;0.85;;;0.73;;
81523;SDS011;70954;49.500;10.416;2024-02-04T06:16:04;0.60;;;0.60;;
81523;SDS011;70954;49.500;10.416;2024-02-04T06:18:29;0.52;;;0.50;;
81523;SDS011;70954;49.500;10.416;2024-02-04T06:20:55;0.90;;;0.70;;
81523;SDS011;70954;49.500;10.416;2024-02-04T06:23:20;0.70;;;0.70;;
81523;SDS011;70954;49.500;10.416;2024-02-04T06:25:46;0.70;;;0.60;;
81523;SDS011;70954;49.500;10.416;2024-02-04T06:28:11;0.57;;;0.57;;
81523;SDS011;70954;49.500;10.416;2024-02-04T06:30:36;0.93;;;0.55;;
81523;SDS011;70954;49.500;10.416;2024-02-04T06:33:02;1.45;;;0.60;;
81523;SDS011;70954;49.500;10.416;2024-02-04T06:35:28;0.93;;;0.73;;
81523;SDS011;70954;49.500;10.416;2024-02-04T06:37:53;1.40;;;0.70;;
81523;SDS011;70954;49.500;10.416;2024-02-04T06:40:18;0.70;;;0.70;;
81523;SDS011;70954;49.500;10.416;2024-02-04T06:42:44;0.57;;;0.50;;
81523;SDS011;70954;49.500;10.416;2024-02-04T06:45:09;0.50;;;0.50;;
81523;SDS011;70954;49.500;10.416;2024-02-04T06:47:35;0.50;;;0.50;;
81523;SDS011;70954;49.500;10.416;2024-02-04T06:50:00;0.52;;;0.45;;
81523;SDS011;70954;49.500;10.416;2024-02-04T06:52:26;0.60;;;0.60;;
81523;SDS011;70954;49.500;10.416;2024-02-04T06:54:51;0.70;;;0.57;;
81523;SDS011;70954;49.500;10.416;2024-02-04T06:57:17;1.02;;;0.80;;
81523;SDS011;70954;49.500;10.416;2024-02-04T06:59:42;0.40;;;0.40;;
81523;SDS011;70954;49.500;10.416;2024-02-04T07:02:07;0.88;;;0.52;;
81523;SDS011;70954;49.500;10.416;2024-02-04T07:04:33;0.73;;;0.50;;
81523;SDS011;70954;49.500;10.416;2024-02-04T07:06:58;0.55;;;0.50;;
81523;SDS011;70954;49.500;10.416;2024-02-04T07:09:24;0.60;;;0.60;;
81523;SDS011;70954;49.500;10.416;2024-02-04T07:11:49;0.30;;;0.30;;
81523;SDS011;70954;49.500;10.416;2024-02-04T07:14:15;0.90;;;0.60;;
81523;SDS011;70954;49.500;10.416;2024-02-04T07:16:40;0.82;;;0.50;;
81523;SDS011;70954;49.500;10.416;2024-02-04T07:19:06;2.25;;;0.98;;
81523;SDS011;70954;49.500;10.416;2024-02-04T07:21:31;0.70;;;0.50;;
81523;SDS011;70954;49.500;10.416;2024-02-04T07:23:56;0.50;;;0.50;;
81523;SDS011;70954;49.500;10.416;2024-02-04T07:26:22;0.75;;;0.60;;
81523;SDS011;70954;49.500;10.416;2024-02-04T07:28:47;0.50;;;0.40;;
81523;SDS011;70954;49.500;10.416;2024-02-04T07:31:13;0.63;;;0.40;;
81523;SDS011;70954;49.500;10.416;2024-02-04T07:33:38;0.63;;;0.50;;
81523;SDS011;70954;49.500;10.416;2024-02-04T07:36:04;1.20;;;0.70;;
81523;SDS011;70954;49.500;10.416;2024-02-04T07:38:29;0.70;;;0.50;;
81523;SDS011;70954;49.500;10.416;2024-02-04T07:40:55;1.52;;;0.60;;
81523;SDS011;70954;49.500;10.416;2024-02-04T07:43:20;0.60;;;0.60;;
81523;SDS011;70954;49.500;10.416;2024-02-04T07:45:46;0.80;;;0.70;;
81523;SDS011;70954;49.500;10.416;2024-02-04T07:48:11;0.50;;;0.50;;
81523;SDS011;70954;49.500;10.416;2024-02-04T07:50:37;0.70;;;0.70;;
81523;SDS011;70954;49.500;10.416;2024-02-04T07:53:02;0.63;;;0.60;;
81523;SDS011;70954;49.500;10.416;2024-02-04T07:55:28;0.80;;;0.73;;
81523;SDS011;70954;49.500;10.416;2024-02-04T07:57:53;0.95;;;0.82;;
81523;SDS011;70954;49.500;10.416;2024-02-04T08:00:19;0.90;;;0.70;;
81523;SDS011;70954;49.500;10.416;2024-02-04T08:02:44;0.77;;;0.65;;
81523;SDS011;70954;49.500;10.416;2024-02-04T08:05:10;0.75;;;0.50;;
81523;SDS011;70954;49.500;10.416;2024-02-04T08:07:35;0.47;;;0.47;;
81523;SDS011;70954;49.500;10.416;2024-02-04T08:10:00;0.50;;;0.50;;
81523;SDS011;70954;49.500;10.416;2024-02-04T08:12:26;0.88;;;0.63;;
81523;SDS011;70954;49.500;10.416;2024-02-04T08:14:51;0.52;;;0.52;;
81523;SDS011;70954;49.500;10.416;2024-02-04T08:17:17;0.80;;;0.80;;
81523;SDS011;70954;49.500;10.416;2024-02-04T08:19:42;0.40;;;0.40;;
81523;SDS011;70954;49.500;10.416;2024-02-04T08:22:08;0.88;;;0.73;;
81523;SDS011;70954;49.500;10.416;2024-02-04T08:24:33;0.50;;;0.50;;
81523;SDS011;70954;49.500;10.416;2024-02-04T08:26:59;0.63;;;0.57;;
81523;SDS011;70954;49.500;10.416;2024-02-04T08:29:24;1.30;;;0.60;;
81523;SDS011;70954;49.500;10.416;2024-02-04T08:31:51;0.47;;;0.47;;
81523;SDS011;70954;49.500;10.416;2024-02-04T08:34:17;0.57;;;0.50;;
81523;SDS011;70954;49.500;10.416;2024-02-04T08:36:42;0.55;;;0.55;;
81523;SDS011;70954;49.500;10.416;2024-02-04T08:39:08;0.55;;;0.50;;
81523;SDS011;70954;49.500;10.416;2024-02-04T08:41:33;0.55;;;0.52;;
81523;SDS011;70954;49.500;10.416;2024-02-04T08:43:59;0.52;;;0.52;;
81523;SDS011;70954;49.500;10.416;2024-02-04T08:46:24;0.50;;;0.50;;
81523;SDS011;70954;49.500;10.416;2024-02-04T08:48:50;0.50;;;0.50;;
81523;SDS011;70954;49.500;10.416;2024-02-04T08:51:15;0.70;;;0.60;;
81523;SDS011;70954;49.500;10.416;2024-02-04T08:53:40;0.52;;;0.52;;
81523;SDS011;70954;49.500;10.416;2024-02-04T08:56:06;0.93;;;0.52;;
81523;SDS011;70954;49.500;10.416;2024-02-04T08:58:32;0.50;;;0.50;;
81523;SDS011;70954;49.500;10.416;2024-02-04T09:00:57;0.63;;;0.60;;
81523;SDS011;70954;49.500;10.416;2024-02-04T09:03:23;0.40;;;0.40;;
81523;SDS011;70954;49.500;10.416;2024-02-04T09:05:48;0.50;;;0.50;;
81523;SDS011;70954;49.500;10.416;2024-02-04T09:08:14;0.45;;;0.40;;
81523;SDS011;70954;49.500;10.416;2024-02-04T09:10:39;1.25;;;0.50;;
81523;SDS011;70954;49.500;10.416;2024-02-04T09:13:05;0.70;;;0.70;;
81523;SDS011;70954;49.500;10.416;2024-02-04T09:15:30;0.47;;;0.40;;
81523;SDS011;70954;49.500;10.416;2024-02-04T09:17:55;0.65;;;0.43;;
81523;SDS011;70954;49.500;10.416;2024-02-04T09:20:21;0.50;;;0.50;;
81523;SDS011;70954;49.500;10.416;2024-02-04T09:22:46;0.80;;;0.40;;
81523;SDS011;70954;49.500;10.416;2024-02-04T09:25:12;0.43;;;0.43;;
81523;SDS011;70954;49.500;10.416;2024-02-04T09:27:37;0.70;;;0.50;;
81523;SDS011;70954;49.500;10.416;2024-02-04T09:30:03;0.30;;;0.30;;
81523;SDS011;70954;49.500;10.416;2024-02-04T09:32:29;0.40;;;0.40;;
81523;SDS011;70954;49.500;10.416;2024-02-04T09:34:54;0.43;;;0.43;;
81523;SDS011;70954;49.500;10.416;2024-02-04T09:37:20;1.02;;;0.60;;
81523;SDS011;70954;49.500;10.416;2024-02-04T09:39:45;0.47;;;0.32;;
81523;SDS011;70954;49.500;10.416;2024-02-04T09:42:11;0.43;;;0.43;;
81523;SDS011;70954;49.500;10.416;2024-02-04T09:44:45;0.43;;;0.40;;
81523;SDS011;70954;49.500;10.416;2024-02-04T09:47:11;0.75;;;0.60;;
81523;SDS011;70954;49.500;10.416;2024-02-04T09:49:38;0.40;;;0.40;;
81523;SDS011;70954;49.500;10.416;2024-02-04T09:52:05;0.40;;;0.40;;
81523;SDS011;70954;49.500;10.416;2024-02-04T09:54:34;0.50;;;0.40;;
81523;SDS011;70954;49.500;10.416;2024-02-04T09:59:34;0.30;;;0.30;;
81523;SDS011;70954;49.500;10.416;2024-02-04T10:02:00;0.43;;;0.43;;
81523;SDS011;70954;49.500;10.416;2024-02-04T10:04:28;0.40;;;0.40;;
81523;SDS011;70954;49.500;10.416;2024-02-04T10:06:53;0.70;;;0.40;;
81523;SDS011;70954;49.500;10.416;2024-02-04T10:09:19;0.30;;;0.30;;
81523;SDS011;70954;49.500;10.416;2024-02-04T10:11:44;0.30;;;0.30;;
81523;SDS011;70954;49.500;10.416;2024-02-04T10:14:10;0.30;;;0.30;;
81523;SDS011;70954;49.500;10.416;2024-02-04T10:16:35;0.40;;;0.40;;
81523;SDS011;70954;49.500;10.416;2024-02-04T10:19:01;0.70;;;0.50;;
81523;SDS011;70954;49.500;10.416;2024-02-04T10:21:27;0.30;;;0.30;;
81523;SDS011;70954;49.500;10.416;2024-02-04T10:23:53;0.40;;;0.40;;
81523;SDS011;70954;49.500;10.416;2024-02-04T10:26:18;0.30;;;0.30;;
81523;SDS011;70954;49.500;10.416;2024-02-04T10:28:44;0.55;;;0.32;;
81523;SDS011;70954;49.500;10.416;2024-02-04T10:31:10;0.35;;;0.35;;
81523;SDS011;70954;49.500;10.416;2024-02-04T10:33:36;0.38;;;0.32;;
81523;SDS011;70954;49.500;10.416;2024-02-04T10:36:02;1.10;;;0.40;;
81523;SDS011;70954;49.500;10.416;2024-02-04T10:38:28;0.75;;;0.40;;
81523;SDS011;70954;49.500;10.416;2024-02-04T10:40:54;1.00;;;0.40;;
81523;SDS011;70954;49.500;10.416;2024-02-04T10:43:20;2.38;;;0.45;;
81523;SDS011;70954;49.500;10.416;2024-02-04T10:45:47;0.50;;;0.40;;
81523;SDS011;70954;49.500;10.416;2024-02-04T10:48:15;0.30;;;0.30;;
81523;SDS011;70954;49.500;10.416;2024-02-04T10:50:44;1.10;;;0.40;;
81523;SDS011;70954;49.500;10.416;2024-02-04T10:53:12;0.30;;;0.30;;
81523;SDS011;70954;49.500;10.416;2024-02-04T10:55:41;0.40;;;0.40;;
81523;SDS011;70954;49.500;10.416;2024-02-04T10:58:08;0.50;;;0.50;;
81523;SDS011;70954;49.500;10.416;2024-02-04T11:00:37;1.05;;;0.60;;
81523;SDS011;70954;49.500;10.416;2024-02-04T11:03:03;0.40;;;0.40;;
81523;SDS011;70954;49.500;10.416;2024-02-04T11:05:30;0.65;;;0.50;;
81523;SDS011;70954;49.500;10.416;2024-02-04T11:07:57;0.40;;;0.40;;
81523;SDS011;70954;49.500;10.416;2024-02-04T11:10:22;0.60;;;0.50;;
81523;SDS011;70954;49.500;10.416;2024-02-04T11:12:52;0.60;;;0.40;;
81523;SDS011;70954;49.500;10.416;2024-02-04T11:15:19;0.40;;;0.40;;
81523;SDS011;70954;49.500;10.416;2024-02-04T11:21:13;0.57;;;0.57;;
81523;SDS011;70954;49.500;10.416;2024-02-04T11:26:23;1.77;;;0.70;;
81523;SDS011;70954;49.500;10.416;2024-02-04T11:28:48;2.90;;;0.82;;
81523;SDS011;70954;49.500;10.416;2024-02-04T11:31:14;0.43;;;0.40;;
81523;SDS011;70954;49.500;10.416;2024-02-04T11:33:42;1.55;;;0.88;;
81523;SDS011;70954;49.500;10.416;2024-02-04T11:36:12;0.63;;;0.50;;
81523;SDS011;70954;49.500;10.416;2024-02-04T11:38:38;0.63;;;0.50;;
81523;SDS011;70954;49.500;10.416;2024-02-04T11:41:05;0.70;;;0.63;;
81523;SDS011;70954;49.500;10.416;2024-02-04T11:43:34;0.45;;;0.45;;
81523;SDS011;70954;49.500;10.416;2024-02-04T11:46:02;0.40;;;0.40;;
81523;SDS011;70954;49.500;10.416;2024-02-04T11:48:29;0.88;;;0.80;;
81523;SDS011;70954;49.500;10.416;2024-02-04T11:50:55;0.40;;;0.40;;
81523;SDS011;70954;49.500;10.416;2024-02-04T11:53:22;0.40;;;0.40;;
81523;SDS011;70954;49.500;10.416;2024-02-04T11:55:48;0.40;;;0.40;;
81523;SDS011;70954;49.500;10.416;2024-02-04T11:58:17;0.50;;;0.47;;
81523;SDS011;70954;49.500;10.416;2024-02-04T12:00:44;0.50;;;0.50;;
81523;SDS011;70954;49.500;10.416;2024-02-04T12:03:10;1.75;;;0.50;;
81523;SDS011;70954;49.500;10.416;2024-02-04T12:05:36;0.45;;;0.40;;
81523;SDS011;70954;49.500;10.416;2024-02-04T12:08:03;0.47;;;0.47;;
81523;SDS011;70954;49.500;10.416;2024-02-04T12:10:30;0.60;;;0.50;;
81523;SDS011;70954;49.500;10.416;2024-02-04T12:12:56;0.50;;;0.50;;
81523;SDS011;70954;49.500;10.416;2024-02-04T12:15:22;1.08;;;0.77;;
81523;SDS011;70954;49.500;10.416;2024-02-04T12:17:48;0.90;;;0.80;;
81523;SDS011;70954;49.500;10.416;2024-02-04T12:20:13;0.65;;;0.65;;
81523;SDS011;70954;49.500;10.416;2024-02-04T12:22:39;1.13;;;0.60;;
81523;SDS011;70954;49.500;10.416;2024-02-04T12:25:05;0.80;;;0.80;;
81523;SDS011;70954;49.500;10.416;2024-02-04T12:27:31;0.60;;;0.60;;
81523;SDS011;70954;49.500;10.416;2024-02-04T12:29:56;0.82;;;0.60;;
81523;SDS011;70954;49.500;10.416;2024-02-04T12:32:22;0.40;;;0.40;;
81523;SDS011;70954;49.500;10.416;2024-02-04T12:34:48;0.77;;;0.50;;
81523;SDS011;70954;49.500;10.416;2024-02-04T12:37:14;0.52;;;0.50;;
81523;SDS011;70954;49.500;10.416;2024-02-04T12:39:39;0.75;;;0.70;;
81523;SDS011;70954;49.500;10.416;2024-02-04T12:42:05;0.70;;;0.40;;
81523;SDS011;70954;49.500;10.416;2024-02-04T12:44:31;0.50;;;0.50;;
81523;SDS011;70954;49.500;10.416;2024-02-04T12:46:56;0.60;;;0.50;;
81523;SDS011;70954;49.500;10.416;2024-02-04T12:49:22;0.63;;;0.50;;
81523;SDS011;70954;49.500;10.416;2024-02-04T12:51:47;0.85;;;0.60;;
81523;SDS011;70954;49.500;10.416;2024-02-04T12:54:13;0.60;;;0.60;;
81523;SDS011;70954;49.500;10.416;2024-02-04T12:56:46;0.63;;;0.57;;
81523;SDS011;70954;49.500;10.416;2024-02-04T12:59:29;0.65;;;0.55;;
81523;SDS011;70954;49.500;10.416;2024-02-04T13:01:59;0.43;;;0.40;;
81523;SDS011;70954;49.500;10.416;2024-02-04T13:04:39;0.52;;;0.52;;
81523;SDS011;70954;49.500;10.416;2024-02-04T13:07:06;0.60;;;0.40;;
81523;SDS011;70954;49.500;10.416;2024-02-04T13:09:35;0.43;;;0.43;;
81523;SDS011;70954;49.500;10.416;2024-02-04T13:12:08;0.50;;;0.50;;
81523;SDS011;70954;49.500;10.416;2024-02-04T13:14:38;0.85;;;0.60;;
81523;SDS011;70954;49.500;10.416;2024-02-04T13:17:03;1.00;;;0.90;;
81523;SDS011;70954;49.500;10.416;2024-02-04T13:19:33;0.80;;;0.50;;
81523;SDS011;70954;49.500;10.416;2024-02-04T13:22:02;3.00;;;0.70;;
81523;SDS011;70954;49.500;10.416;2024-02-04T13:24:31;0.70;;;0.60;;
81523;SDS011;70954;49.500;10.416;2024-02-04T13:26:57;0.55;;;0.55;;
81523;SDS011;70954;49.500;10.416;2024-02-04T13:29:23;0.70;;;0.70;;
81523;SDS011;70954;49.500;10.416;2024-02-04T13:31:49;0.80;;;0.80;;
81523;SDS011;70954;49.500;10.416;2024-02-04T13:34:15;0.70;;;0.70;;
81523;SDS011;70954;49.500;10.416;2024-02-04T13:36:40;3.03;;;1.90;;
81523;SDS011;70954;49.500;10.416;2024-02-04T13:39:06;2.63;;;1.33;;
81523;SDS011;70954;49.500;10.416;2024-02-04T13:41:31;2.55;;;1.38;;
81523;SDS011;70954;49.500;10.416;2024-02-04T13:43:57;1.40;;;1.00;;
81523;SDS011;70954;49.500;10.416;2024-02-04T13:46:22;2.08;;;1.40;;
81523;SDS011;70954;49.500;10.416;2024-02-04T13:48:51;1.10;;;1.00;;
81523;SDS011;70954;49.500;10.416;2024-02-04T13:51:16;1.00;;;0.90;;
81523;SDS011;70954;49.500;10.416;2024-02-04T13:53:41;0.90;;;0.80;;
81523;SDS011;70954;49.500;10.416;2024-02-04T13:56:07;0.98;;;0.80;;
81523;SDS011;70954;49.500;10.416;2024-02-04T13:58:32;1.33;;;1.00;;
81523;SDS011;70954;49.500;10.416;2024-02-04T14:00:58;1.52;;;0.93;;
81523;SDS011;70954;49.500;10.416;2024-02-04T14:03:23;1.42;;;1.00;;
81523;SDS011;70954;49.500;10.416;2024-02-04T14:05:49;1.83;;;1.10;;
81523;SDS011;70954;49.500;10.416;2024-02-04T14:08:15;0.73;;;0.70;;
81523;SDS011;70954;49.500;10.416;2024-02-04T14:10:40;1.20;;;0.80;;
81523;SDS011;70954;49.500;10.416;2024-02-04T14:13:06;1.27;;;1.08;;
81523;SDS011;70954;49.500;10.416;2024-02-04T14:15:31;1.20;;;1.10;;
81523;SDS011;70954;49.500;10.416;2024-02-04T14:17:57;0.88;;;0.88;;
81523;SDS011;70954;49.500;10.416;2024-02-04T14:20:23;1.17;;;0.90;;
81523;SDS011;70954;49.500;10.416;2024-02-04T14:22:48;1.27;;;1.10;;
81523;SDS011;70954;49.500;10.416;2024-02-04T14:25:14;1.20;;;1.00;;
81523;SDS011;70954;49.500;10.416;2024-02-04T14:27:40;1.33;;;1.05;;
81523;SDS011;70954;49.500;10.416;2024-02-04T14:30:05;0.93;;;0.93;;
81523;SDS011;70954;49.500;10.416;2024-02-04T14:32:31;3.85;;;0.88;;
81523;SDS011;70954;49.500;10.416;2024-02-04T14:34:56;1.35;;;0.98;;
81523;SDS011;70954;49.500;10.416;2024-02-04T14:37:22;0.80;;;0.80;;
81523;SDS011;70954;49.500;10.416;2024-02-04T14:39:47;2.45;;;1.20;;